Pagrindinis puslapis
METAR-TAF:

METAR-TAF

Oro uostai :

Tarava, Kiribatis

platuma: 01-21N, ilguma: 172-55E, Aukštis: 2 m

Dabartinis oras

Ataskaita buvo paskelbta 20 minutes, ne 02:00 UTC
Vėjas 4 kt iš Rytų/Pietryčių
Temperatūra 32°C
Drėgmė 63%
Slėgis 1009 hPa
Matomumas 10 km arba daugiau
Mažai debesys ne aukštis 2500 ft

METAR: NGTA 170200Z 12004KT 9999 FEW025 32/24 Q1009

Laikas: 16:20 (02:20 UTC)

Prognozė

Ataskaita buvo paskelbta 2 valandos ir 58 minutes, ne 23:22 UTC
Prognozė galioja nuo 17 metu 00 UTC su 17 metu 24 UTC
Vėjas 8 kt iš Pietryčių
Matomumas 10 km arba daugiau
Išsisklaidę debesys ne aukštis 2000 ft

TAF: NGTA 162322Z 1700/1724 13008KT 9999 SCT020

Orai ataskaitas ir orų prognozės (METAR, TAF).

turimą stotys yra geltonos ir raudonos taškus žemėlapyje.

Perkelti pele per norėdami pamatyti stoties vardą.

Tada spustelėkite, norėdami matyti oro stebėjimo ir prognozės.

Norėdami pakeisti žemėlapį: spustelėkite ant žalios mygtukų su juodo kryžiaus žemyn,; žalią mygtuką su brūkšneliu, jei norite nutolinti; arba žalių rodyklių gretimoms žemėlapius.


METAR-TAF: